Bookmark and Share
Track history (hours):
 

HUAL Seoul

Last reported at 2014-Apr-13 00:08 UTC. Time now 2014-Apr-18 10:37 UTC.
Position N 34°20' W 075°54'.

Type: Cargo ship. MMSI: 257496000.

NotesDate/timePositionNaut miles runAvg speedWind from/ knotsBaromVisibWave heightAir tempDewpointWater temp
2014-Apr-13 00:08N 34°20' W 075°54'712.5
2014-Apr-12 23:33N 34°25' W 075°48'143 9.5
2014-Apr-12 08:33N 36°48' W 075°45'9 9.1
2014-Apr-12 07:32N 36°53' W 075°54'1111.1
2014-Apr-12 06:33N 37°02' W 076°03'1817.6
2014-Apr-12 05:33N 37°19' W 076°06'9118.2
2014-Apr-12 00:33N 38°49' W 076°25'1716.8
2014-Apr-11 23:33N 39°06' W 076°24'1211.9
2014-Apr-11 22:33N 39°15' W 076°34'1 0.7
2014-Apr-11 21:31N 39°15' W 076°35'0 0.0
2014-Apr-11 20:31N 39°15' W 076°35'0 0.0
2014-Apr-11 19:32N 39°15' W 076°35'0 0.0
2014-Apr-11 18:32N 39°15' W 076°35'0 0.0
2014-Apr-11 17:33N 39°15' W 076°35'0 0.0
2014-Apr-11 16:33N 39°15' W 076°35'0 0.0
2014-Apr-11 15:33N 39°15' W 076°35'0 0.0
2014-Apr-11 14:33N 39°15' W 076°35'0 0.0
2014-Apr-11 13:33N 39°15' W 076°35'0 0.0
2014-Apr-11 12:33N 39°15' W 076°35'0 0.0
2014-Apr-11 11:33N 39°15' W 076°35'0 0.0
2014-Apr-11 10:32N 39°15' W 076°35'2 1.9
2014-Apr-11 09:33N 39°14' W 076°33'10 9.9
2014-Apr-11 08:33N 39°09' W 076°21'10 9.8
2014-Apr-11 07:33N 39°17' W 076°14'1312.3
2014-Apr-11 06:32N 39°25' W 076°01'98 3.8
2014-Apr-10 04:33N 39°20' W 073°55'1212.4
2014-Apr-10 03:33N 39°33' W 073°54'1212.1
2014-Apr-10 02:33N 39°45' W 073°52'1212.3
2014-Apr-10 01:33N 39°57' W 073°51'3110.2
2014-Apr-09 22:30N 40°28' W 073°52'910.0
2014-Apr-09 21:33N 40°34' W 074°02'7 7.4
2014-Apr-09 20:34N 40°40' W 074°08'2 2.0
2014-Apr-09 19:32N 40°42' W 074°09'0 0.0
2014-Apr-09 18:32N 40°42' W 074°09'0 0.0
2014-Apr-09 17:32N 40°42' W 074°09'0 0.0
2014-Apr-09 16:32N 40°42' W 074°09'0 0.0
2014-Apr-09 15:32N 40°42' W 074°09'0 0.0
2014-Apr-09 14:32N 40°42' W 074°09'0 0.0
2014-Apr-09 13:32N 40°42' W 074°09'0 0.0
2014-Apr-09 12:32N 40°42' W 074°09'0 0.0
2014-Apr-09 11:32N 40°42' W 074°09'0 0.0
2014-Apr-09 10:32N 40°42' W 074°09'0 0.0
2014-Apr-09 09:32N 40°42' W 074°09'0 0.0
2014-Apr-09 08:32N 40°42' W 074°09'0 0.0
2014-Apr-09 07:32N 40°42' W 074°09'0 0.0
2014-Apr-09 06:32N 40°42' W 074°09'0 0.0
2014-Apr-09 05:32N 40°42' W 074°09'0 0.1
2014-Apr-09 04:31N 40°42' W 074°09'0 0.0
2014-Apr-09 03:31N 40°42' W 074°09'0 0.0
2014-Apr-09 02:31N 40°42' W 074°09'0 0.0
2014-Apr-09 01:31N 40°42' W 074°09'0 0.0
2014-Apr-09 00:31N 40°42' W 074°09'0 0.0
2014-Apr-08 23:31N 40°42' W 074°09'0 0.0
2014-Apr-08 22:31N 40°42' W 074°09'3 2.9
2014-Apr-08 21:33N 40°39' W 074°09'5 5.3
2014-Apr-08 20:33N 40°37' W 074°03'1211.6
2014-Apr-08 19:33N 40°28' W 073°52'7 6.8
2014-Apr-08 18:33N 40°23' W 073°47'8 8.3
2014-Apr-08 17:33N 40°14' W 073°46'10 9.7
2014-Apr-08 16:33N 40°05' W 073°45'1514.3
2014-Apr-08 15:32N 39°50' W 073°43'1414.6
2014-Apr-08 14:34N 39°36' W 073°41'1514.1
2014-Apr-08 13:31N 39°22' W 073°46'18014.6
2014-Apr-08 01:15N 36°49' W 075°45'6 9.3
2014-Apr-08 00:33N 36°52' W 075°52'9 8.8
2014-Apr-07 23:33N 36°57' W 076°01'1514.8
2014-Apr-07 22:34N 36°59' W 076°19'6 5.5
2014-Apr-07 21:33N 36°58' W 076°26'0 0.0
2014-Apr-07 20:27N 36°58' W 076°26'0 0.0
2014-Apr-07 19:30N 36°58' W 076°26'0 0.0
2014-Apr-07 17:27N 36°58' W 076°26'0 0.0
2014-Apr-07 16:33N 36°58' W 076°26'0 0.0
2014-Apr-07 15:33N 36°58' W 076°26'2 2.1
2014-Apr-07 14:33N 36°57' W 076°23'1414.3
2014-Apr-07 13:33N 36°58' W 076°06'1010.0
2014-Apr-07 12:33N 36°55' W 075°54'9 8.7
2014-Apr-07 11:33N 36°49' W 075°45'9 8.6
2014-Apr-07 10:33N 36°43' W 075°38'63714.5
2014-Apr-05 14:33N 26°38' W 079°36'1918.8
2014-Apr-05 13:33N 26°20' W 079°35'2221.8
2014-Apr-05 12:33N 25°58' W 079°38'1817.6
2014-Apr-05 11:33N 25°40' W 079°41'1615.3
2014-Apr-05 10:30N 25°24' W 079°43'3615.7
2014-Apr-05 08:12N 24°56' W 080°07'69614.9
2014-Apr-03 09:23N 27°56' W 092°39'  

Dump ship's entire track history

sailing weather and tide predictions

HUAL Seoul — LADO6 — position and weather